createdAt,value
2022-08-12T00:00:44.253Z,17.53
2022-08-12T00:06:15.967Z,17.45
2022-08-12T00:11:47.964Z,17.38
2022-08-12T00:17:20.621Z,17.32
2022-08-12T00:22:58.621Z,17.27
2022-08-12T00:28:23.482Z,17.20
2022-08-12T00:33:55.099Z,17.11
2022-08-12T00:39:26.832Z,17.04
2022-08-12T00:44:58.404Z,16.98
2022-08-12T00:50:30.285Z,16.91
2022-08-12T00:56:01.795Z,16.84
2022-08-12T01:02:11.472Z,16.78
2022-08-12T01:07:05.517Z,16.74
2022-08-12T01:12:37.376Z,16.68
2022-08-12T01:18:09.225Z,16.63
2022-08-12T01:23:40.954Z,16.57
2022-08-12T01:29:12.694Z,16.49
2022-08-12T01:34:44.520Z,16.39
2022-08-12T01:40:31.595Z,16.28
2022-08-12T01:45:47.768Z,16.19
2022-08-12T01:51:24.450Z,16.11
2022-08-12T01:56:51.289Z,16.04
2022-08-12T02:02:23.042Z,15.97
2022-08-12T02:07:54.909Z,15.89
2022-08-12T02:13:43.663Z,15.81
2022-08-12T02:18:58.378Z,15.75
2022-08-12T02:24:30.167Z,15.70
2022-08-12T02:30:01.991Z,15.65
2022-08-12T02:35:33.621Z,15.62
2022-08-12T02:41:05.805Z,15.59
2022-08-12T02:46:37.403Z,15.55
2022-08-12T02:52:09.371Z,15.49
2022-08-12T02:57:41.153Z,15.42
2022-08-12T03:03:13.094Z,15.35
2022-08-12T03:08:49.171Z,15.28
2022-08-12T03:14:16.852Z,15.21
2022-08-12T03:20:09.378Z,15.16
2022-08-12T03:25:21.892Z,15.12
2022-08-12T03:30:56.653Z,15.07
2022-08-12T03:41:58.090Z,14.97
2022-08-12T03:47:29.359Z,14.93
2022-08-12T03:58:33.050Z,14.83
2022-08-12T04:15:08.066Z,14.77
2022-08-12T04:20:39.937Z,14.78
2022-08-12T04:26:11.731Z,14.85
2022-08-12T04:31:43.501Z,15.05
2022-08-12T04:37:15.062Z,15.38
2022-08-12T04:42:47.168Z,15.82
2022-08-12T04:48:18.720Z,16.33
2022-08-12T04:53:50.483Z,16.88
2022-08-12T04:59:22.259Z,17.33
2022-08-12T05:16:04.200Z,17.46
2022-08-12T05:21:31.258Z,17.39
2022-08-12T05:32:34.882Z,17.27
2022-08-12T05:38:06.644Z,17.47
2022-08-12T05:43:38.200Z,18.12
2022-08-12T05:49:10.009Z,18.96
2022-08-12T05:54:57.140Z,19.81
2022-08-12T06:00:13.430Z,20.61
2022-08-12T06:11:17.137Z,21.60
2022-08-12T06:16:49.336Z,21.96
2022-08-12T06:22:20.945Z,22.22
2022-08-12T06:28:05.862Z,22.58
2022-08-12T06:33:56.077Z,22.89
2022-08-12T06:38:56.297Z,23.05
2022-08-12T06:44:28.058Z,23.52
2022-08-12T06:50:00.013Z,23.99
2022-08-12T06:55:31.846Z,24.08
2022-08-12T07:06:35.479Z,24.13
2022-08-12T07:12:07.399Z,24.42
2022-08-12T07:17:39.142Z,24.53
2022-08-12T07:23:10.916Z,24.44
2022-08-12T07:28:42.797Z,24.59
2022-08-12T07:34:14.584Z,24.92
2022-08-12T07:39:50.127Z,25.25
2022-08-12T07:50:50.148Z,25.47
2022-08-12T08:01:53.801Z,25.71
2022-08-12T08:12:57.361Z,25.86
2022-08-12T08:18:29.098Z,25.86
2022-08-12T08:24:05.415Z,25.80
2022-08-12T08:29:35.135Z,25.91
2022-08-12T08:35:06.965Z,26.13
2022-08-12T08:40:38.961Z,26.10
2022-08-12T08:46:10.637Z,25.84
2022-08-12T08:51:42.623Z,25.75
2022-08-12T08:57:14.258Z,25.71
2022-08-12T09:02:49.018Z,25.51
2022-08-12T09:08:26.696Z,25.63
2022-08-12T09:24:55.485Z,25.85
2022-08-12T09:30:41.786Z,25.70
2022-08-12T09:36:04.689Z,25.46
2022-08-12T09:47:00.471Z,25.32
2022-08-12T09:52:32.293Z,25.26
2022-08-12T09:58:44.870Z,25.10
2022-08-12T10:03:35.859Z,24.84
2022-08-12T10:09:08.220Z,24.58
2022-08-12T10:14:39.191Z,24.43
2022-08-12T10:20:12.014Z,24.46
2022-08-12T10:26:36.752Z,24.53
2022-08-12T10:31:16.042Z,24.58
2022-08-12T10:36:46.528Z,24.56
2022-08-12T10:42:29.070Z,24.44
2022-08-12T10:48:07.360Z,24.39
2022-08-12T10:53:21.965Z,24.40
2022-08-12T10:58:53.976Z,24.41
2022-08-12T11:04:45.188Z,24.40
2022-08-12T11:10:01.447Z,24.36
2022-08-12T11:15:33.569Z,24.40
2022-08-12T11:21:05.689Z,24.55
2022-08-12T11:26:34.328Z,24.57
2022-08-12T11:32:05.821Z,24.49
2022-08-12T11:37:59.177Z,24.59
2022-08-12T11:43:19.237Z,24.74
2022-08-12T11:54:14.901Z,24.86
2022-08-12T12:02:02.924Z,24.85
2022-08-12T12:05:16.970Z,24.82
2022-08-12T12:08:36.222Z,24.52
2022-08-12T12:13:01.651Z,24.79
2022-08-12T12:18:33.756Z,25.03
2022-08-12T12:24:05.551Z,25.22
2022-08-12T12:30:13.473Z,25.24
2022-08-12T12:36:05.418Z,25.16
2022-08-12T12:40:40.955Z,25.08
2022-08-12T12:46:12.633Z,25.06
2022-08-12T12:52:06.774Z,25.13
2022-08-12T12:57:17.028Z,25.27
2022-08-12T13:02:52.971Z,25.32
2022-08-12T13:08:20.617Z,25.38
2022-08-12T13:14:09.750Z,25.47
2022-08-12T13:19:25.493Z,25.48
2022-08-12T13:24:57.180Z,25.38
2022-08-12T13:30:28.413Z,25.37
2022-08-12T13:36:06.207Z,25.43
2022-08-12T13:41:32.495Z,25.48
2022-08-12T13:47:18.532Z,25.51
2022-08-12T13:52:36.414Z,25.46
2022-08-12T13:58:12.678Z,25.43
2022-08-12T14:03:49.996Z,25.46
2022-08-12T14:09:17.318Z,25.53
2022-08-12T14:14:43.616Z,25.65
2022-08-12T14:20:15.170Z,25.73
2022-08-12T14:25:47.006Z,25.79
2022-08-12T14:31:18.918Z,25.88
2022-08-12T14:36:50.879Z,25.98
2022-08-12T14:42:22.720Z,26.05
2022-08-12T14:47:58.568Z,26.07
2022-08-12T14:59:00.089Z,26.15
2022-08-12T15:04:29.361Z,26.22
2022-08-12T15:10:01.702Z,26.15
2022-08-12T15:15:36.215Z,25.97
2022-08-12T15:21:11.483Z,25.91
2022-08-12T15:26:40.815Z,26.00
2022-08-12T15:32:15.711Z,26.20
2022-08-12T15:37:59.028Z,26.33
2022-08-12T15:45:34.221Z,25.67
2022-08-12T15:51:06.090Z,25.69
2022-08-12T15:56:38.044Z,25.60
2022-08-12T16:02:09.941Z,25.49
2022-08-12T16:07:41.732Z,25.38
2022-08-12T16:13:13.570Z,25.24
2022-08-12T16:18:45.291Z,25.03
2022-08-12T16:24:16.770Z,24.86
2022-08-12T16:29:53.366Z,24.66
2022-08-12T16:35:20.126Z,24.43
2022-08-12T16:40:52.043Z,24.23
2022-08-12T16:46:31.410Z,24.03
2022-08-12T16:51:55.902Z,23.82
2022-08-12T16:57:34.961Z,23.70
2022-08-12T17:02:59.844Z,23.57
2022-08-12T17:08:31.453Z,23.49
2022-08-12T17:14:03.381Z,23.41
2022-08-12T17:20:29.143Z,23.36
2022-08-12T17:30:39.036Z,23.35
2022-08-12T17:36:10.908Z,23.33
2022-08-12T17:41:55.922Z,23.27
2022-08-12T17:47:14.624Z,23.22
2022-08-12T17:52:50.198Z,23.17
2022-08-12T18:04:04.397Z,22.96
2022-08-12T18:09:24.602Z,22.86
2022-08-12T18:14:55.168Z,22.75
2022-08-12T18:20:26.964Z,22.58
2022-08-12T18:26:14.520Z,22.38
2022-08-12T18:31:44.568Z,22.23
2022-08-12T18:37:26.621Z,22.09
2022-08-12T18:42:33.467Z,21.96
2022-08-12T18:54:06.648Z,21.72
2022-08-12T18:59:10.040Z,21.58
2022-08-12T19:04:40.670Z,21.44
2022-08-12T19:10:12.329Z,21.32
2022-08-12T19:15:44.142Z,21.21
2022-08-12T19:21:20.298Z,21.08
2022-08-12T19:26:47.837Z,20.97
2022-08-12T19:32:23.235Z,20.85
2022-08-12T19:38:03.808Z,20.71
2022-08-12T19:43:23.330Z,20.56
2022-08-12T19:48:58.878Z,20.44
2022-08-12T19:54:30.187Z,20.33
2022-08-12T20:00:04.245Z,20.23
2022-08-12T20:06:06.684Z,20.13
2022-08-12T20:12:13.579Z,20.06
2022-08-12T20:16:52.302Z,19.97
2022-08-12T20:22:05.225Z,19.86
2022-08-12T20:28:02.491Z,19.72
2022-08-12T20:33:17.529Z,19.63
2022-08-12T20:38:40.504Z,19.54
2022-08-12T20:49:44.217Z,19.29
2022-08-12T20:55:19.478Z,19.15
2022-08-12T21:00:47.734Z,19.03
2022-08-12T21:06:19.485Z,18.94
2022-08-12T21:11:51.325Z,18.84
2022-08-12T21:14:16.418Z,18.24
2022-08-12T21:19:51.999Z,18.41
2022-08-12T21:25:17.711Z,18.45
2022-08-12T21:31:11.694Z,18.46
2022-08-12T21:36:22.545Z,18.43
2022-08-12T21:41:53.044Z,18.36
2022-08-12T21:47:24.528Z,18.27
2022-08-12T21:52:56.313Z,18.16
2022-08-12T21:58:28.138Z,18.07
2022-08-12T22:04:04.065Z,17.98
2022-08-12T22:09:42.550Z,17.88
2022-08-12T22:15:04.386Z,17.80
2022-08-12T22:20:36.297Z,17.71
2022-08-12T22:26:07.787Z,17.62
2022-08-12T22:31:39.916Z,17.55
2022-08-12T22:37:20.328Z,17.46
2022-08-12T22:48:20.110Z,17.31
2022-08-12T22:53:46.822Z,17.26
2022-08-12T22:59:18.749Z,17.17
2022-08-12T23:04:50.303Z,17.09
2022-08-12T23:10:21.526Z,17.04
2022-08-12T23:15:55.267Z,17.00
2022-08-12T23:21:24.889Z,16.96
2022-08-12T23:26:57.101Z,16.89
2022-08-12T23:32:53.948Z,16.81
2022-08-12T23:38:00.290Z,16.73
2022-08-12T23:43:39.415Z,16.63
2022-08-12T23:54:44.063Z,16.47
